createdAt,value
2023-05-22T00:01:32.799Z,9.00
2023-05-22T00:04:02.973Z,11.30
2023-05-22T00:06:34.186Z,8.65
2023-05-22T00:09:06.844Z,9.35
2023-05-22T00:11:37.144Z,9.13
2023-05-22T00:14:06.900Z,8.27
2023-05-22T00:16:36.677Z,7.75
2023-05-22T00:19:07.386Z,8.23
2023-05-22T00:21:37.748Z,7.55
2023-05-22T00:24:10.672Z,8.57
2023-05-22T00:26:40.487Z,10.70
2023-05-22T00:29:11.004Z,8.50
2023-05-22T00:31:40.812Z,9.52
2023-05-22T00:34:10.739Z,6.60
2023-05-22T00:36:40.613Z,7.55
2023-05-22T00:39:13.180Z,8.57
2023-05-22T00:41:43.009Z,8.25
2023-05-22T00:44:13.060Z,10.48
2023-05-22T00:46:43.427Z,7.97
2023-05-22T00:49:13.246Z,10.63
2023-05-22T00:51:43.026Z,8.65
2023-05-22T00:54:15.712Z,9.73
2023-05-22T00:56:45.651Z,10.13
2023-05-22T00:59:15.894Z,9.85
2023-05-22T01:01:45.792Z,9.07
2023-05-22T01:04:18.660Z,7.97
2023-05-22T01:06:49.631Z,8.93
2023-05-22T01:09:21.990Z,8.63
2023-05-22T01:11:58.705Z,9.23
2023-05-22T01:14:34.913Z,8.70
2023-05-22T01:17:10.100Z,8.27
2023-05-22T01:20:01.753Z,9.20
2023-05-22T01:23:02.935Z,11.70
2023-05-22T01:25:55.815Z,10.57
2023-05-22T01:28:40.214Z,10.15
2023-05-22T01:31:13.461Z,10.68
2023-05-22T01:33:49.424Z,10.35
2023-05-22T01:36:22.647Z,10.82
2023-05-22T01:38:52.952Z,10.67
2023-05-22T01:41:23.498Z,12.25
2023-05-22T01:43:53.319Z,14.23
2023-05-22T01:46:28.399Z,12.20
2023-05-22T01:48:58.332Z,13.77
2023-05-22T01:51:44.238Z,10.77
2023-05-22T01:54:20.236Z,10.88
2023-05-22T01:56:52.048Z,10.80
2023-05-22T01:59:26.759Z,11.75
2023-05-22T02:01:59.367Z,11.80
2023-05-22T02:04:30.290Z,10.00
2023-05-22T02:07:01.228Z,11.43
2023-05-22T02:09:32.899Z,11.55
2023-05-22T02:12:03.752Z,12.15
2023-05-22T02:14:34.719Z,11.18
2023-05-22T02:17:08.972Z,9.80
2023-05-22T02:19:38.932Z,11.18
2023-05-22T02:22:10.078Z,11.02
2023-05-22T02:24:40.222Z,11.35
2023-05-22T02:27:10.323Z,12.18
2023-05-22T02:29:40.146Z,12.52
2023-05-22T02:32:12.643Z,14.30
2023-05-22T02:34:42.396Z,11.13
2023-05-22T02:37:13.339Z,12.55
2023-05-22T02:39:43.686Z,16.83
2023-05-22T02:42:13.436Z,17.00
2023-05-22T02:44:43.208Z,12.63
2023-05-22T02:47:15.705Z,14.80
2023-05-22T02:49:45.584Z,11.18
2023-05-22T02:52:15.473Z,11.98
2023-05-22T02:54:45.311Z,14.13
2023-05-22T02:57:15.279Z,12.43
2023-05-22T02:59:45.039Z,13.18
2023-05-22T03:02:19.913Z,12.00
2023-05-22T03:04:51.334Z,13.02
2023-05-22T03:07:21.640Z,12.52
2023-05-22T03:09:51.476Z,11.95
2023-05-22T03:12:21.319Z,14.05
2023-05-22T03:14:51.139Z,13.90
2023-05-22T03:17:23.513Z,13.00
2023-05-22T03:19:53.353Z,12.23
2023-05-22T03:22:23.382Z,13.68
2023-05-22T03:24:53.660Z,14.13
2023-05-22T03:27:23.478Z,14.27
2023-05-22T03:29:53.313Z,14.75
2023-05-22T03:32:27.018Z,13.65
2023-05-22T03:34:57.080Z,14.40
2023-05-22T03:37:26.866Z,11.98
2023-05-22T03:39:56.766Z,13.77
2023-05-22T03:42:32.767Z,15.57
2023-05-22T03:45:02.845Z,14.85
2023-05-22T03:47:35.423Z,15.43
2023-05-22T03:50:06.148Z,16.03
2023-05-22T03:52:36.013Z,16.60
2023-05-22T03:55:08.073Z,14.43
2023-05-22T03:57:37.839Z,16.98
2023-05-22T04:00:10.053Z,12.43
2023-05-22T04:02:47.050Z,14.60
2023-05-22T04:05:17.508Z,15.20
2023-05-22T04:07:47.362Z,17.27
2023-05-22T04:10:17.114Z,14.93
2023-05-22T04:12:46.877Z,17.60
2023-05-22T04:15:16.583Z,16.25
2023-05-22T04:17:50.177Z,14.52
2023-05-22T04:20:22.392Z,16.40
2023-05-22T04:22:54.561Z,17.67
2023-05-22T04:25:24.393Z,14.98
2023-05-22T04:27:55.728Z,16.75
2023-05-22T04:30:25.863Z,17.52
2023-05-22T04:32:58.252Z,18.50
2023-05-22T04:35:29.767Z,14.98
2023-05-22T04:38:02.339Z,15.77
2023-05-22T04:40:33.872Z,17.23
2023-05-22T04:43:03.735Z,16.75
2023-05-22T04:45:33.863Z,16.45
2023-05-22T04:48:06.518Z,15.23
2023-05-22T04:50:39.162Z,17.35
2023-05-22T04:53:09.573Z,16.65
2023-05-22T04:55:40.077Z,17.80
2023-05-22T04:58:13.366Z,20.23
2023-05-22T05:00:43.496Z,17.38
2023-05-22T05:03:16.107Z,14.65
2023-05-22T05:05:46.393Z,15.80
2023-05-22T05:08:16.255Z,17.13
2023-05-22T05:10:46.143Z,18.85
2023-05-22T05:13:16.011Z,17.70
2023-05-22T05:15:48.075Z,17.20
2023-05-22T05:18:20.446Z,19.70
2023-05-22T05:20:51.807Z,16.70
2023-05-22T05:23:22.589Z,18.42
2023-05-22T05:25:52.404Z,19.10
2023-05-22T05:28:23.283Z,19.42
2023-05-22T05:30:53.256Z,40.28
2023-05-22T05:33:44.140Z,20.55
2023-05-22T05:36:34.480Z,19.27
2023-05-22T05:39:04.500Z,16.20
2023-05-22T05:41:37.384Z,18.15
2023-05-22T05:44:11.228Z,17.17
2023-05-22T05:46:41.425Z,19.10
2023-05-22T05:49:14.305Z,18.27
2023-05-22T05:54:15.104Z,17.48
2023-05-22T05:56:44.907Z,19.70
2023-05-22T05:59:14.965Z,17.90
2023-05-22T06:02:00.662Z,27.05
2023-05-22T06:04:37.136Z,47.55
2023-05-22T06:07:08.101Z,38.30
2023-05-22T06:09:42.611Z,25.52
2023-05-22T06:12:38.842Z,16.20
2023-05-22T06:15:10.559Z,19.55
2023-05-22T06:17:40.515Z,18.20
2023-05-22T06:20:17.200Z,17.48
2023-05-22T06:22:47.011Z,16.63
2023-05-22T06:25:16.842Z,17.50
2023-05-22T06:27:47.534Z,16.70
2023-05-22T06:30:31.853Z,18.10
2023-05-22T06:33:10.489Z,18.65
2023-05-22T06:35:43.395Z,21.08
2023-05-22T06:38:13.330Z,18.77
2023-05-22T06:40:45.130Z,17.65
2023-05-22T06:43:24.540Z,19.33
2023-05-22T06:45:58.548Z,19.00
2023-05-22T06:48:47.096Z,18.45
2023-05-22T06:51:29.589Z,18.42
2023-05-22T06:54:07.824Z,20.63
2023-05-22T06:56:39.869Z,19.33
2023-05-22T06:59:13.756Z,20.92
2023-05-22T07:02:06.647Z,23.02
2023-05-22T07:04:58.904Z,22.23
2023-05-22T07:07:51.182Z,24.35
2023-05-22T07:10:20.959Z,22.33
2023-05-22T07:12:53.185Z,23.27
2023-05-22T07:15:22.963Z,25.60
2023-05-22T07:17:56.502Z,24.33
2023-05-22T07:20:26.441Z,28.73
2023-05-22T07:23:14.582Z,26.98
2023-05-22T07:25:45.686Z,24.83
2023-05-22T07:28:17.539Z,24.23
2023-05-22T07:31:03.700Z,24.02
2023-05-22T07:33:33.665Z,24.50
2023-05-22T07:36:03.473Z,25.35
2023-05-22T07:38:36.454Z,27.10
2023-05-22T07:41:08.103Z,27.60
2023-05-22T07:43:38.127Z,29.30
2023-05-22T07:46:09.590Z,31.10
2023-05-22T07:48:47.176Z,34.53
2023-05-22T07:51:18.214Z,33.83
2023-05-22T07:53:54.148Z,36.90
2023-05-22T07:56:25.912Z,38.22
2023-05-22T07:58:56.019Z,35.22
2023-05-22T08:01:26.449Z,35.00
2023-05-22T08:03:56.663Z,37.47
2023-05-22T08:06:27.173Z,42.90
2023-05-22T08:09:00.257Z,40.67
2023-05-22T08:11:30.057Z,46.17
2023-05-22T08:13:59.811Z,43.38
2023-05-22T08:16:31.085Z,42.40
2023-05-22T08:19:01.050Z,39.08
2023-05-22T08:21:33.291Z,41.95
2023-05-22T08:24:06.079Z,43.15
2023-05-22T08:26:35.937Z,44.67
2023-05-22T08:29:05.704Z,35.70
2023-05-22T08:31:36.099Z,36.33
2023-05-22T08:34:07.426Z,36.92
2023-05-22T08:36:37.608Z,33.40
2023-05-22T08:39:10.313Z,36.88
2023-05-22T08:41:40.144Z,35.28
2023-05-22T08:44:11.135Z,37.08
2023-05-22T08:46:41.768Z,38.33
2023-05-22T08:49:12.169Z,30.63
2023-05-22T08:51:43.056Z,39.38
2023-05-22T08:54:15.550Z,36.10
2023-05-22T08:56:55.694Z,38.03
2023-05-22T08:59:27.004Z,38.45
2023-05-22T09:01:58.257Z,35.83
2023-05-22T09:04:30.077Z,34.88
2023-05-22T09:07:05.873Z,38.58
2023-05-22T09:09:39.762Z,37.60
2023-05-22T09:12:12.022Z,32.90
2023-05-22T09:14:42.390Z,36.53
2023-05-22T09:17:12.938Z,32.50
2023-05-22T09:19:46.539Z,33.67
2023-05-22T09:22:16.889Z,32.28
2023-05-22T09:24:49.769Z,33.58
2023-05-22T09:27:19.542Z,36.50
2023-05-22T09:29:51.458Z,30.45
2023-05-22T09:32:22.059Z,33.25
2023-05-22T09:34:52.302Z,30.77
2023-05-22T09:37:22.147Z,32.40
2023-05-22T09:39:56.608Z,31.48
2023-05-22T09:42:27.573Z,35.70
2023-05-22T09:44:57.371Z,32.28
2023-05-22T09:47:27.213Z,31.67
2023-05-22T09:50:00.726Z,29.13
2023-05-22T09:52:31.702Z,30.55
2023-05-22T09:55:06.097Z,30.65
2023-05-22T09:57:40.210Z,28.38
2023-05-22T10:00:13.397Z,25.67
2023-05-22T10:02:45.715Z,25.05
2023-05-22T10:05:21.828Z,24.48
2023-05-22T10:07:52.880Z,25.45
2023-05-22T10:10:30.858Z,23.65
2023-05-22T10:13:04.582Z,22.83
2023-05-22T10:18:04.371Z,20.02
2023-05-22T10:20:34.160Z,23.42
2023-05-22T10:23:06.283Z,23.60
2023-05-22T10:25:39.272Z,23.30
2023-05-22T10:28:09.735Z,23.98
2023-05-22T10:30:45.152Z,24.20
2023-05-22T10:33:40.020Z,20.02
2023-05-22T10:36:12.450Z,22.50
2023-05-22T10:38:58.435Z,23.15
2023-05-22T10:41:31.281Z,24.90
2023-05-22T10:44:01.036Z,23.55
2023-05-22T10:46:35.435Z,23.52
2023-05-22T10:49:05.411Z,23.55
2023-05-22T10:51:35.430Z,22.90
2023-05-22T10:54:05.845Z,25.10
2023-05-22T10:56:38.796Z,26.48
2023-05-22T10:59:08.893Z,20.52
2023-05-22T11:01:38.918Z,24.08
2023-05-22T11:04:20.195Z,20.63
2023-05-22T11:07:05.572Z,19.73
2023-05-22T11:09:36.371Z,21.60
2023-05-22T11:12:22.612Z,20.17
2023-05-22T11:14:54.054Z,23.38
2023-05-22T11:17:26.050Z,19.35
2023-05-22T11:20:06.807Z,21.95
2023-05-22T11:22:39.947Z,20.75
2023-05-22T11:25:14.225Z,19.20
2023-05-22T11:27:47.502Z,20.65
2023-05-22T11:30:21.240Z,24.48
2023-05-22T11:32:51.011Z,24.33
2023-05-22T11:35:21.728Z,22.20
2023-05-22T11:37:54.501Z,21.38
2023-05-22T11:40:26.155Z,21.63
2023-05-22T11:42:59.049Z,22.10
2023-05-22T11:45:29.835Z,21.10
2023-05-22T11:47:59.745Z,20.13
2023-05-22T11:50:41.773Z,22.02
2023-05-22T11:53:12.747Z,21.70
2023-05-22T11:55:42.533Z,21.58
2023-05-22T11:58:15.300Z,23.17
2023-05-22T12:00:46.374Z,22.73
2023-05-22T12:03:17.719Z,20.58
2023-05-22T12:05:49.473Z,21.08
2023-05-22T12:08:19.397Z,22.05
2023-05-22T12:10:51.013Z,25.15
2023-05-22T12:13:32.809Z,22.23
2023-05-22T12:16:03.462Z,21.60
2023-05-22T12:18:39.147Z,22.98
2023-05-22T12:21:09.569Z,23.80
2023-05-22T12:23:39.322Z,20.17
2023-05-22T12:26:12.409Z,24.02
2023-05-22T12:28:44.741Z,21.92
2023-05-22T12:31:14.662Z,24.85
2023-05-22T12:33:44.457Z,24.45
2023-05-22T12:36:14.478Z,25.98
2023-05-22T12:38:44.392Z,22.00
2023-05-22T12:41:14.461Z,23.80
2023-05-22T12:43:46.832Z,24.42
2023-05-22T12:46:16.743Z,23.52
2023-05-22T12:48:46.494Z,24.92
2023-05-22T12:51:18.033Z,23.30
2023-05-22T12:53:49.073Z,24.08
2023-05-22T12:56:18.813Z,21.40
2023-05-22T12:58:51.225Z,21.90
2023-05-22T13:01:21.908Z,22.67
2023-05-22T13:03:52.003Z,20.80
2023-05-22T13:06:21.973Z,24.23
2023-05-22T13:08:51.792Z,22.75
2023-05-22T13:11:23.587Z,19.58
2023-05-22T13:13:55.910Z,22.40
2023-05-22T13:16:25.732Z,23.48
2023-05-22T13:18:55.513Z,26.80
2023-05-22T13:21:26.722Z,23.25
2023-05-22T13:23:56.861Z,23.05
2023-05-22T13:26:26.785Z,23.33
2023-05-22T13:28:59.636Z,23.30
2023-05-22T13:31:29.395Z,23.23
2023-05-22T13:34:01.566Z,23.80
2023-05-22T13:39:02.592Z,29.42
2023-05-22T13:41:32.377Z,27.58
2023-05-22T13:44:04.767Z,25.73
2023-05-22T13:46:34.555Z,23.33
2023-05-22T13:49:04.333Z,22.95
2023-05-22T13:51:34.119Z,23.42
2023-05-22T13:54:03.909Z,24.30
2023-05-22T13:56:33.804Z,25.55
2023-05-22T13:59:09.181Z,25.35
2023-05-22T14:01:39.520Z,24.08
2023-05-22T14:04:09.452Z,22.98
2023-05-22T14:06:39.426Z,25.58
2023-05-22T14:09:09.747Z,24.08
2023-05-22T14:11:39.544Z,26.48
2023-05-22T14:14:11.897Z,27.00
2023-05-22T14:16:42.211Z,26.37
2023-05-22T14:19:12.479Z,26.08
2023-05-22T14:21:42.222Z,22.88
2023-05-22T14:24:11.973Z,22.85
2023-05-22T14:26:42.241Z,24.30
2023-05-22T14:29:14.916Z,23.30
2023-05-22T14:31:51.441Z,27.83
2023-05-22T14:34:21.855Z,27.70
2023-05-22T14:36:51.658Z,30.08
2023-05-22T14:39:21.415Z,26.92
2023-05-22T14:41:51.531Z,30.95
2023-05-22T14:44:24.113Z,26.65
2023-05-22T14:46:54.764Z,26.00
2023-05-22T14:49:24.566Z,25.98
2023-05-22T14:51:54.780Z,26.88
2023-05-22T14:54:24.512Z,25.63
2023-05-22T14:56:54.307Z,26.63
2023-05-22T14:59:26.665Z,26.52
2023-05-22T15:01:56.500Z,26.20
2023-05-22T15:04:26.416Z,28.98
2023-05-22T15:06:56.475Z,29.63
2023-05-22T15:09:26.418Z,29.60
2023-05-22T15:11:56.222Z,33.08
2023-05-22T15:14:28.523Z,29.58
2023-05-22T15:16:58.275Z,33.30
2023-05-22T15:19:28.178Z,28.38
2023-05-22T15:22:05.819Z,27.80
2023-05-22T15:24:47.133Z,28.00
2023-05-22T15:27:17.454Z,26.95
2023-05-22T15:29:49.772Z,28.08
2023-05-22T15:32:19.560Z,28.52
2023-05-22T15:34:49.397Z,28.88
2023-05-22T15:37:19.160Z,26.08
2023-05-22T15:39:49.046Z,31.77
2023-05-22T15:42:18.827Z,28.17
2023-05-22T15:44:51.212Z,32.58
2023-05-22T15:47:20.977Z,33.38
2023-05-22T15:49:50.751Z,31.55
2023-05-22T15:52:22.640Z,30.15
2023-05-22T15:54:52.663Z,32.00
2023-05-22T15:57:22.938Z,30.98
2023-05-22T15:59:55.318Z,29.80
2023-05-22T16:02:25.623Z,30.15
2023-05-22T16:04:55.458Z,35.90
2023-05-22T16:07:25.254Z,31.63
2023-05-22T16:09:55.009Z,35.00
2023-05-22T16:12:24.907Z,32.65
2023-05-22T16:15:00.377Z,33.08
2023-05-22T16:17:30.922Z,35.58
2023-05-22T16:20:00.700Z,32.50
2023-05-22T16:22:44.285Z,36.33
2023-05-22T16:25:18.651Z,35.53
2023-05-22T16:27:48.429Z,40.95
2023-05-22T16:30:21.456Z,35.78
2023-05-22T16:32:51.731Z,30.77
2023-05-22T16:35:22.372Z,32.97
2023-05-22T16:37:52.937Z,32.60
2023-05-22T16:40:22.819Z,42.00
2023-05-22T16:42:52.530Z,34.70
2023-05-22T16:45:25.029Z,32.67
2023-05-22T16:47:55.922Z,33.45
2023-05-22T16:50:26.035Z,32.13
2023-05-22T16:52:56.434Z,29.10
2023-05-22T16:55:26.212Z,28.75
2023-05-22T16:57:55.942Z,27.13
2023-05-22T17:00:28.503Z,31.20
2023-05-22T17:02:58.788Z,30.33
2023-05-22T17:05:28.739Z,28.25
2023-05-22T17:07:58.522Z,26.20
2023-05-22T17:10:28.298Z,25.70
2023-05-22T17:12:58.053Z,23.80
2023-05-22T17:15:30.439Z,26.70
2023-05-22T17:18:00.422Z,25.85
2023-05-22T17:20:30.198Z,25.10
2023-05-22T17:22:59.947Z,25.45
2023-05-22T17:25:29.719Z,25.23
2023-05-22T17:27:59.580Z,22.88
2023-05-22T17:30:32.138Z,23.48
2023-05-22T17:33:03.730Z,21.75
2023-05-22T17:35:33.805Z,16.40
2023-05-22T17:38:03.539Z,13.07
2023-05-22T17:40:43.855Z,12.38
2023-05-22T17:43:14.390Z,11.27
2023-05-22T17:45:50.265Z,10.27
2023-05-22T17:48:23.848Z,10.73
2023-05-22T17:53:23.589Z,8.50
2023-05-22T17:55:54.249Z,10.32
2023-05-22T17:58:24.130Z,9.07
2023-05-22T18:00:56.525Z,8.18
2023-05-22T18:03:26.594Z,8.85
2023-05-22T18:05:56.439Z,11.32
2023-05-22T18:08:26.234Z,9.40
2023-05-22T18:10:57.337Z,8.88
2023-05-22T18:13:27.144Z,8.05
2023-05-22T18:16:00.205Z,12.30
2023-05-22T18:18:30.343Z,9.65
2023-05-22T18:21:01.159Z,9.82
2023-05-22T18:23:30.995Z,9.10
2023-05-22T18:26:01.264Z,7.55
2023-05-22T18:28:30.981Z,10.02
2023-05-22T18:31:04.284Z,10.07
2023-05-22T18:33:34.383Z,8.45
2023-05-22T18:36:04.549Z,9.63
2023-05-22T18:38:34.338Z,8.60
2023-05-22T18:41:04.138Z,9.10
2023-05-22T18:43:33.881Z,10.82
2023-05-22T18:46:06.772Z,10.02
2023-05-22T18:48:36.554Z,11.73
2023-05-22T18:51:06.606Z,12.77
2023-05-22T18:53:36.374Z,11.63
2023-05-22T18:56:06.233Z,11.10
2023-05-22T18:58:37.807Z,9.13
2023-05-22T19:01:10.735Z,11.85
2023-05-22T19:03:40.592Z,11.80
2023-05-22T19:06:10.316Z,11.35
2023-05-22T19:08:40.621Z,11.25
2023-05-22T19:11:10.414Z,12.38
2023-05-22T19:13:41.332Z,12.15
2023-05-22T19:16:13.788Z,14.00
2023-05-22T19:18:43.646Z,13.50
2023-05-22T19:21:13.406Z,13.60
2023-05-22T19:23:43.390Z,13.32
2023-05-22T19:26:13.265Z,12.90
2023-05-22T19:28:43.388Z,13.15
2023-05-22T19:31:16.646Z,16.23
2023-05-22T19:33:47.097Z,16.35
2023-05-22T19:36:16.871Z,13.73
2023-05-22T19:38:46.653Z,13.52
2023-05-22T19:41:17.305Z,18.48
2023-05-22T19:43:47.332Z,17.40
2023-05-22T19:46:19.812Z,13.93
2023-05-22T19:48:49.800Z,16.85
2023-05-22T19:51:19.667Z,14.35
2023-05-22T19:53:49.498Z,13.02
2023-05-22T19:56:19.300Z,15.30
2023-05-22T19:58:49.100Z,15.57
2023-05-22T20:01:21.545Z,17.40
2023-05-22T20:03:51.773Z,14.30
2023-05-22T20:06:21.961Z,17.80
2023-05-22T20:08:51.736Z,14.52
2023-05-22T20:11:21.803Z,14.30
2023-05-22T20:13:54.725Z,13.30
2023-05-22T20:16:29.543Z,12.83
2023-05-22T20:18:59.597Z,14.18
2023-05-22T20:21:29.349Z,11.73
2023-05-22T20:23:59.543Z,10.95
2023-05-22T20:26:29.559Z,12.10
2023-05-22T20:28:59.316Z,9.70
2023-05-22T20:31:31.874Z,9.98
2023-05-22T20:34:02.132Z,9.00
2023-05-22T20:36:32.655Z,9.15
2023-05-22T20:39:02.565Z,10.45
2023-05-22T20:41:32.313Z,10.98
2023-05-22T20:44:02.768Z,8.57
2023-05-22T20:46:35.597Z,10.68
2023-05-22T20:49:06.276Z,7.30
2023-05-22T20:51:37.111Z,8.18
2023-05-22T20:54:07.020Z,8.30
2023-05-22T20:56:37.827Z,8.32
2023-05-22T20:59:07.604Z,8.40
2023-05-22T21:01:40.048Z,8.25
2023-05-22T21:04:10.103Z,8.52
2023-05-22T21:06:40.045Z,9.93
2023-05-22T21:09:09.807Z,7.57
2023-05-22T21:11:39.572Z,9.32
2023-05-22T21:14:09.463Z,7.75
2023-05-22T21:16:41.873Z,7.95
2023-05-22T21:19:11.725Z,8.15
2023-05-22T21:21:41.955Z,10.07
2023-05-22T21:24:12.394Z,9.15
2023-05-22T21:26:42.173Z,16.00
2023-05-22T21:29:11.983Z,7.95
2023-05-22T21:31:44.358Z,11.02
2023-05-22T21:34:14.144Z,9.05
2023-05-22T21:36:43.934Z,9.38
2023-05-22T21:39:13.844Z,10.07
2023-05-22T21:41:43.662Z,9.93
2023-05-22T21:44:13.427Z,8.25
2023-05-22T21:46:46.067Z,9.73
2023-05-22T21:49:15.877Z,12.82
2023-05-22T21:51:45.679Z,8.20
2023-05-22T21:54:15.481Z,8.27
2023-05-22T21:56:45.239Z,8.77
2023-05-22T21:59:15.059Z,7.28
2023-05-22T22:01:47.510Z,8.95
2023-05-22T22:04:17.262Z,10.35
2023-05-22T22:06:47.030Z,10.07
2023-05-22T22:09:16.846Z,8.98
2023-05-22T22:11:48.685Z,10.60
2023-05-22T22:14:18.550Z,9.00
2023-05-22T22:16:54.371Z,9.43
2023-05-22T22:19:24.874Z,9.82
2023-05-22T22:21:55.172Z,9.23
2023-05-22T22:24:24.902Z,9.52
2023-05-22T22:26:55.129Z,8.68
2023-05-22T22:29:24.991Z,9.50
2023-05-22T22:31:57.354Z,10.02
2023-05-22T22:34:27.197Z,9.00
2023-05-22T22:36:57.547Z,10.30
2023-05-22T22:39:27.795Z,10.70
2023-05-22T22:42:02.034Z,10.13
2023-05-22T22:44:31.912Z,9.18
2023-05-22T22:47:04.792Z,10.60
2023-05-22T22:49:35.077Z,10.43
2023-05-22T22:52:04.812Z,13.63
2023-05-22T22:54:34.592Z,11.18
2023-05-22T22:57:04.680Z,9.38
2023-05-22T22:59:35.624Z,10.82
2023-05-22T23:02:08.472Z,12.82
2023-05-22T23:04:38.309Z,9.27
2023-05-22T23:07:08.557Z,10.65
2023-05-22T23:09:40.162Z,9.48
2023-05-22T23:12:11.257Z,10.10
2023-05-22T23:14:41.016Z,9.98
2023-05-22T23:17:13.379Z,11.35
2023-05-22T23:19:43.234Z,11.65
2023-05-22T23:22:13.196Z,9.93
2023-05-22T23:24:42.953Z,9.82
2023-05-22T23:27:12.736Z,13.45
2023-05-22T23:29:43.639Z,10.95
2023-05-22T23:32:16.056Z,10.70
2023-05-22T23:34:45.876Z,10.25
2023-05-22T23:37:15.623Z,11.80
2023-05-22T23:39:45.386Z,10.13
2023-05-22T23:42:15.721Z,9.98
2023-05-22T23:44:45.635Z,10.77
2023-05-22T23:47:18.994Z,11.35
2023-05-22T23:49:48.807Z,8.77
2023-05-22T23:52:18.670Z,9.60
2023-05-22T23:54:48.438Z,8.63
2023-05-22T23:57:18.259Z,11.95
2023-05-22T23:59:48.009Z,8.48
